SAVC/CRD METAR and TAF weather

Enter ICAO airport designator
Station Type Date Time Source
SAVC METAR 2019/04/18 22:00 UTC NOAA

SAVC 182200Z 25009KT 210V300 CAVOK 19/03 Q1005


Station Type Date Time Source
SAVC Decoded METAR 2019/04/18 22:00 UTC NOAA

Comodoro Rivadavia Aerodrome, Argentina (SAVC) 45-47S 067-30W 46M
Apr 18, 2019 - 06:00 PM EDT / 2019.04.18 2200 UTC
Wind: from the WSW (250 degrees) at 10 MPH (9 KT) (direction variable):0
Visibility: greater than 7 mile(s):0
Temperature: 66 F (19 C)
Dew Point: 37 F (3 C)
Relative Humidity: 34%
Pressure (altimeter): 29.68 in. Hg (1005 hPa)
ob: SAVC 182200Z 25009KT 210V300 CAVOK 19/03 Q1005
cycle: 22

Station Type Date Time Source
SAVC TAF 2019/04/18 18:03 UTC NOAA

TAF TAF SAVC 181700Z 1818/1918 27010KT CAVOK TX20/1820Z TN08/1911Z
BECMG 1819/1821 25015G30KT
BECMG 1904/1906 27010KT
BECMG 1914/1916 18015KT

Example: see airport list